首页
METAR-TAF:

METAR-TAF

机场 :

蒙克洛瓦, 墨西哥

纬度: 26-53N, 经度: 101-25W, 海拔: 615米

当前天气观测

该预报发布于5小时和4分钟前的18:49 UTC
风速4节,风向东北
温度 36°C
湿度 33%
气压 1009 hPa
能見度: 16.1公里
天空无云

METAR: MMMV 201849Z 04004KT 10SM SKC 36/17 A2981

时间: 18:53 (23:53 UTC)

预报

该预报发布于7小时和12分钟前的16:41 UTC
预报有效从20日的 18点(UTC)到 21日的 18点(UTC)
风速节,风向
能見度: 10公里
天空无云
从 20日的 2000点(UTC)
风速10节,风向东北
能見度: 10公里
天空无云
从 21日的 0200点(UTC)
风速节,风向
能見度: 10公里
散云层高于20000英尺

TAF: MMMV 201641Z 2018/2118 00000KT P6SM SKC FM202000 04010KT P6SM SKC FM210200 00000KT P6SM SCT200

超过4000个机场的气象观测和天气预报(METAR&TAF报告)。

可查询的气象台以黄色和红色小点在地图上表示。

将鼠标移到小点上方,可查看气象台名称。

然后点击查看天气观测和预报。

如需切换地图:点击带黑十字的绿色按钮放大地图;点击带横线的绿色按钮缩小地图;或者点击绿色箭头查看邻近地区的地图。


METAR-TAF: